sensor_id;sensor_type;location;lat;lon;timestamp;P1;durP1;ratioP1;P2;durP2;ratioP2
65130;SDS011;51709;54.912;8.316;2023-01-01T00:05:05;53.90;;;8.95;;
65130;SDS011;51709;54.912;8.316;2023-01-01T00:10:26;65.07;;;10.63;;
65130;SDS011;51709;54.912;8.316;2023-01-01T00:15:50;53.88;;;10.10;;
65130;SDS011;51709;54.912;8.316;2023-01-01T00:21:11;43.35;;;8.07;;
65130;SDS011;51709;54.912;8.316;2023-01-01T00:26:35;60.17;;;12.00;;
65130;SDS011;51709;54.912;8.316;2023-01-01T00:31:56;69.80;;;9.27;;
65130;SDS011;51709;54.912;8.316;2023-01-01T00:37:16;52.95;;;11.77;;
65130;SDS011;51709;54.912;8.316;2023-01-01T00:42:37;57.38;;;9.82;;
65130;SDS011;51709;54.912;8.316;2023-01-01T00:48:01;64.25;;;10.45;;
65130;SDS011;51709;54.912;8.316;2023-01-01T00:53:21;57.58;;;9.60;;
65130;SDS011;51709;54.912;8.316;2023-01-01T00:58:42;70.60;;;9.75;;
65130;SDS011;51709;54.912;8.316;2023-01-01T01:04:20;60.40;;;9.82;;
65130;SDS011;51709;54.912;8.316;2023-01-01T01:09:41;58.58;;;9.10;;
65130;SDS011;51709;54.912;8.316;2023-01-01T01:15:01;60.65;;;9.90;;
65130;SDS011;51709;54.912;8.316;2023-01-01T01:20:23;77.47;;;10.32;;
65130;SDS011;51709;54.912;8.316;2023-01-01T01:25:43;63.35;;;10.18;;
65130;SDS011;51709;54.912;8.316;2023-01-01T01:31:04;71.13;;;9.52;;
65130;SDS011;51709;54.912;8.316;2023-01-01T01:36:25;52.88;;;11.68;;
65130;SDS011;51709;54.912;8.316;2023-01-01T01:41:46;68.53;;;8.35;;
65130;SDS011;51709;54.912;8.316;2023-01-01T01:47:08;45.72;;;9.10;;
65130;SDS011;51709;54.912;8.316;2023-01-01T01:52:47;58.95;;;11.05;;
65130;SDS011;51709;54.912;8.316;2023-01-01T01:58:18;67.28;;;11.13;;
65130;SDS011;51709;54.912;8.316;2023-01-01T02:03:40;61.30;;;9.88;;
65130;SDS011;51709;54.912;8.316;2023-01-01T02:09:22;43.78;;;10.65;;
65130;SDS011;51709;54.912;8.316;2023-01-01T02:14:43;51.85;;;10.35;;
65130;SDS011;51709;54.912;8.316;2023-01-01T02:32:06;76.28;;;10.43;;
65130;SDS011;51709;54.912;8.316;2023-01-01T02:37:32;88.73;;;12.60;;
65130;SDS011;51709;54.912;8.316;2023-01-01T02:42:52;78.60;;;12.65;;
65130;SDS011;51709;54.912;8.316;2023-01-01T02:54:00;48.20;;;10.27;;
65130;SDS011;51709;54.912;8.316;2023-01-01T03:11:26;77.80;;;11.88;;
65130;SDS011;51709;54.912;8.316;2023-01-01T03:16:56;72.15;;;13.50;;
65130;SDS011;51709;54.912;8.316;2023-01-01T03:22:27;51.00;;;11.80;;
65130;SDS011;51709;54.912;8.316;2023-01-01T03:28:04;77.28;;;13.32;;
65130;SDS011;51709;54.912;8.316;2023-01-01T03:33:50;75.57;;;12.40;;
65130;SDS011;51709;54.912;8.316;2023-01-01T03:39:22;53.10;;;10.98;;
65130;SDS011;51709;54.912;8.316;2023-01-01T03:50:27;64.43;;;10.15;;
65130;SDS011;51709;54.912;8.316;2023-01-01T03:56:15;53.17;;;10.43;;
65130;SDS011;51709;54.912;8.316;2023-01-01T04:01:46;50.23;;;9.10;;
65130;SDS011;51709;54.912;8.316;2023-01-01T04:07:09;60.58;;;10.20;;
65130;SDS011;51709;54.912;8.316;2023-01-01T04:12:34;55.95;;;10.38;;
65130;SDS011;51709;54.912;8.316;2023-01-01T04:17:55;80.20;;;11.02;;
65130;SDS011;51709;54.912;8.316;2023-01-01T04:23:16;57.50;;;11.30;;
65130;SDS011;51709;54.912;8.316;2023-01-01T04:28:36;54.80;;;10.82;;
65130;SDS011;51709;54.912;8.316;2023-01-01T04:33:57;66.72;;;10.35;;
65130;SDS011;51709;54.912;8.316;2023-01-01T04:39:18;46.78;;;11.23;;
65130;SDS011;51709;54.912;8.316;2023-01-01T04:44:39;42.35;;;9.30;;
65130;SDS011;51709;54.912;8.316;2023-01-01T04:50:00;59.25;;;11.02;;
65130;SDS011;51709;54.912;8.316;2023-01-01T04:55:20;57.45;;;9.57;;
65130;SDS011;51709;54.912;8.316;2023-01-01T05:00:41;61.22;;;11.07;;
65130;SDS011;51709;54.912;8.316;2023-01-01T05:06:03;54.53;;;10.00;;
65130;SDS011;51709;54.912;8.316;2023-01-01T05:11:26;63.40;;;10.57;;
65130;SDS011;51709;54.912;8.316;2023-01-01T05:16:48;46.78;;;8.25;;
65130;SDS011;51709;54.912;8.316;2023-01-01T05:22:09;44.92;;;8.77;;
65130;SDS011;51709;54.912;8.316;2023-01-01T05:27:30;56.42;;;10.40;;
65130;SDS011;51709;54.912;8.316;2023-01-01T05:32:51;62.13;;;12.02;;
65130;SDS011;51709;54.912;8.316;2023-01-01T05:38:12;43.70;;;6.72;;
65130;SDS011;51709;54.912;8.316;2023-01-01T05:43:33;51.20;;;7.75;;
65130;SDS011;51709;54.912;8.316;2023-01-01T05:48:54;49.63;;;7.22;;
65130;SDS011;51709;54.912;8.316;2023-01-01T05:54:15;52.08;;;7.82;;
65130;SDS011;51709;54.912;8.316;2023-01-01T05:59:35;47.10;;;9.15;;
65130;SDS011;51709;54.912;8.316;2023-01-01T06:04:57;64.95;;;11.27;;
65130;SDS011;51709;54.912;8.316;2023-01-01T06:10:18;54.58;;;8.95;;
65130;SDS011;51709;54.912;8.316;2023-01-01T06:15:40;71.97;;;9.65;;
65130;SDS011;51709;54.912;8.316;2023-01-01T06:21:09;47.13;;;8.30;;
65130;SDS011;51709;54.912;8.316;2023-01-01T06:26:34;57.33;;;9.68;;
65130;SDS011;51709;54.912;8.316;2023-01-01T06:31:57;52.53;;;8.75;;
65130;SDS011;51709;54.912;8.316;2023-01-01T06:37:18;62.35;;;8.50;;
65130;SDS011;51709;54.912;8.316;2023-01-01T06:42:39;61.15;;;9.68;;
65130;SDS011;51709;54.912;8.316;2023-01-01T06:47:59;49.45;;;8.13;;
65130;SDS011;51709;54.912;8.316;2023-01-01T06:53:24;47.20;;;9.00;;
65130;SDS011;51709;54.912;8.316;2023-01-01T06:58:45;43.15;;;7.25;;
65130;SDS011;51709;54.912;8.316;2023-01-01T07:04:07;53.55;;;7.85;;
65130;SDS011;51709;54.912;8.316;2023-01-01T07:09:30;51.20;;;7.72;;
65130;SDS011;51709;54.912;8.316;2023-01-01T07:14:51;48.53;;;8.18;;
65130;SDS011;51709;54.912;8.316;2023-01-01T07:20:13;33.03;;;8.70;;
65130;SDS011;51709;54.912;8.316;2023-01-01T07:25:33;37.70;;;6.68;;
65130;SDS011;51709;54.912;8.316;2023-01-01T07:30:54;38.97;;;7.80;;
65130;SDS011;51709;54.912;8.316;2023-01-01T07:36:15;38.42;;;5.35;;
65130;SDS011;51709;54.912;8.316;2023-01-01T07:41:35;48.53;;;6.85;;
65130;SDS011;51709;54.912;8.316;2023-01-01T07:47:03;29.50;;;5.85;;
65130;SDS011;51709;54.912;8.316;2023-01-01T07:52:25;37.72;;;6.85;;
65130;SDS011;51709;54.912;8.316;2023-01-01T07:57:47;49.67;;;8.07;;
65130;SDS011;51709;54.912;8.316;2023-01-01T08:03:08;35.88;;;6.85;;
65130;SDS011;51709;54.912;8.316;2023-01-01T08:08:29;48.00;;;6.40;;
65130;SDS011;51709;54.912;8.316;2023-01-01T08:13:50;46.20;;;7.45;;
65130;SDS011;51709;54.912;8.316;2023-01-01T08:19:10;49.55;;;6.60;;
65130;SDS011;51709;54.912;8.316;2023-01-01T08:24:31;37.38;;;6.38;;
65130;SDS011;51709;54.912;8.316;2023-01-01T08:29:52;21.13;;;4.85;;
65130;SDS011;51709;54.912;8.316;2023-01-01T08:35:12;44.47;;;6.13;;
65130;SDS011;51709;54.912;8.316;2023-01-01T08:40:33;45.53;;;9.15;;
65130;SDS011;51709;54.912;8.316;2023-01-01T08:45:54;47.08;;;7.15;;
65130;SDS011;51709;54.912;8.316;2023-01-01T08:51:16;42.92;;;8.40;;
65130;SDS011;51709;54.912;8.316;2023-01-01T08:56:37;40.55;;;7.65;;
65130;SDS011;51709;54.912;8.316;2023-01-01T09:01:58;37.28;;;6.47;;
65130;SDS011;51709;54.912;8.316;2023-01-01T09:07:20;44.55;;;7.05;;
65130;SDS011;51709;54.912;8.316;2023-01-01T09:12:41;36.33;;;7.38;;
65130;SDS011;51709;54.912;8.316;2023-01-01T09:18:02;40.47;;;6.10;;
65130;SDS011;51709;54.912;8.316;2023-01-01T09:23:23;32.75;;;5.53;;
65130;SDS011;51709;54.912;8.316;2023-01-01T09:28:44;45.00;;;6.57;;
65130;SDS011;51709;54.912;8.316;2023-01-01T09:34:05;46.50;;;7.57;;
65130;SDS011;51709;54.912;8.316;2023-01-01T09:39:26;48.92;;;8.40;;
65130;SDS011;51709;54.912;8.316;2023-01-01T09:44:52;54.75;;;6.72;;
65130;SDS011;51709;54.912;8.316;2023-01-01T09:50:41;45.15;;;7.05;;
65130;SDS011;51709;54.912;8.316;2023-01-01T09:56:05;53.22;;;6.43;;
65130;SDS011;51709;54.912;8.316;2023-01-01T10:01:53;48.70;;;7.63;;
65130;SDS011;51709;54.912;8.316;2023-01-01T10:18:30;43.95;;;7.07;;
65130;SDS011;51709;54.912;8.316;2023-01-01T10:23:55;41.65;;;8.23;;
65130;SDS011;51709;54.912;8.316;2023-01-01T10:29:22;36.55;;;6.60;;
65130;SDS011;51709;54.912;8.316;2023-01-01T10:34:48;44.72;;;7.00;;
65130;SDS011;51709;54.912;8.316;2023-01-01T10:40:20;42.53;;;9.02;;
65130;SDS011;51709;54.912;8.316;2023-01-01T10:45:43;50.00;;;7.25;;
65130;SDS011;51709;54.912;8.316;2023-01-01T10:51:13;55.95;;;8.48;;
65130;SDS011;51709;54.912;8.316;2023-01-01T10:56:39;53.97;;;9.57;;
65130;SDS011;51709;54.912;8.316;2023-01-01T11:07:35;51.33;;;7.05;;
65130;SDS011;51709;54.912;8.316;2023-01-01T11:12:56;35.55;;;7.38;;
65130;SDS011;51709;54.912;8.316;2023-01-01T11:18:27;39.63;;;6.75;;
65130;SDS011;51709;54.912;8.316;2023-01-01T11:24:09;43.65;;;7.28;;
65130;SDS011;51709;54.912;8.316;2023-01-01T11:29:36;48.08;;;7.15;;
65130;SDS011;51709;54.912;8.316;2023-01-01T11:34:58;37.50;;;6.47;;
65130;SDS011;51709;54.912;8.316;2023-01-01T11:40:23;50.05;;;8.07;;
65130;SDS011;51709;54.912;8.316;2023-01-01T11:45:53;43.95;;;8.18;;
65130;SDS011;51709;54.912;8.316;2023-01-01T11:51:30;51.85;;;7.47;;
65130;SDS011;51709;54.912;8.316;2023-01-01T11:56:53;37.50;;;6.68;;
65130;SDS011;51709;54.912;8.316;2023-01-01T12:02:28;41.30;;;7.85;;
65130;SDS011;51709;54.912;8.316;2023-01-01T12:07:55;49.65;;;7.32;;
65130;SDS011;51709;54.912;8.316;2023-01-01T12:13:29;36.40;;;7.15;;
65130;SDS011;51709;54.912;8.316;2023-01-01T12:19:01;43.75;;;7.90;;
65130;SDS011;51709;54.912;8.316;2023-01-01T12:24:33;29.92;;;7.28;;
65130;SDS011;51709;54.912;8.316;2023-01-01T12:47:00;45.28;;;7.15;;
65130;SDS011;51709;54.912;8.316;2023-01-01T12:52:47;47.55;;;7.88;;
65130;SDS011;51709;54.912;8.316;2023-01-01T12:58:19;36.75;;;7.05;;
65130;SDS011;51709;54.912;8.316;2023-01-01T13:09:12;41.08;;;6.40;;
65130;SDS011;51709;54.912;8.316;2023-01-01T13:14:44;34.75;;;6.43;;
65130;SDS011;51709;54.912;8.316;2023-01-01T13:20:20;29.52;;;6.45;;
65130;SDS011;51709;54.912;8.316;2023-01-01T13:25:43;44.85;;;7.38;;
65130;SDS011;51709;54.912;8.316;2023-01-01T13:31:03;43.35;;;7.03;;
65130;SDS011;51709;54.912;8.316;2023-01-01T13:41:45;46.63;;;7.47;;
65130;SDS011;51709;54.912;8.316;2023-01-01T13:53:11;48.47;;;7.38;;
65130;SDS011;51709;54.912;8.316;2023-01-01T14:04:19;63.38;;;8.45;;
65130;SDS011;51709;54.912;8.316;2023-01-01T14:15:37;52.05;;;7.50;;
65130;SDS011;51709;54.912;8.316;2023-01-01T14:20:59;52.75;;;9.23;;
65130;SDS011;51709;54.912;8.316;2023-01-01T14:26:21;37.38;;;6.68;;
65130;SDS011;51709;54.912;8.316;2023-01-01T14:31:44;40.63;;;7.55;;
65130;SDS011;51709;54.912;8.316;2023-01-01T14:37:18;65.22;;;8.57;;
65130;SDS011;51709;54.912;8.316;2023-01-01T14:42:43;72.82;;;11.57;;
65130;SDS011;51709;54.912;8.316;2023-01-01T14:48:10;35.30;;;7.50;;
65130;SDS011;51709;54.912;8.316;2023-01-01T14:53:38;53.30;;;8.75;;
65130;SDS011;51709;54.912;8.316;2023-01-01T15:04:50;58.55;;;7.13;;
65130;SDS011;51709;54.912;8.316;2023-01-01T15:10:11;49.15;;;7.60;;
65130;SDS011;51709;54.912;8.316;2023-01-01T15:15:39;51.78;;;7.95;;
65130;SDS011;51709;54.912;8.316;2023-01-01T15:21:10;36.13;;;6.35;;
65130;SDS011;51709;54.912;8.316;2023-01-01T15:26:33;35.83;;;6.57;;
65130;SDS011;51709;54.912;8.316;2023-01-01T15:31:57;27.95;;;5.88;;
65130;SDS011;51709;54.912;8.316;2023-01-01T15:37:31;31.20;;;6.13;;
65130;SDS011;51709;54.912;8.316;2023-01-01T15:48:27;50.30;;;7.32;;
65130;SDS011;51709;54.912;8.316;2023-01-01T15:53:55;48.40;;;7.25;;
65130;SDS011;51709;54.912;8.316;2023-01-01T16:04:50;36.08;;;6.60;;
65130;SDS011;51709;54.912;8.316;2023-01-01T16:10:12;43.90;;;8.07;;
65130;SDS011;51709;54.912;8.316;2023-01-01T16:15:35;49.45;;;7.88;;
65130;SDS011;51709;54.912;8.316;2023-01-01T16:20:56;52.25;;;7.43;;
65130;SDS011;51709;54.912;8.316;2023-01-01T16:26:17;40.05;;;6.70;;
65130;SDS011;51709;54.912;8.316;2023-01-01T16:31:38;56.13;;;8.13;;
65130;SDS011;51709;54.912;8.316;2023-01-01T16:36:59;52.85;;;6.28;;
65130;SDS011;51709;54.912;8.316;2023-01-01T16:42:20;36.25;;;6.03;;
65130;SDS011;51709;54.912;8.316;2023-01-01T16:47:40;40.38;;;7.05;;
65130;SDS011;51709;54.912;8.316;2023-01-01T16:53:01;44.53;;;8.60;;
65130;SDS011;51709;54.912;8.316;2023-01-01T16:58:22;65.88;;;7.90;;
65130;SDS011;51709;54.912;8.316;2023-01-01T17:04:03;55.45;;;8.98;;
65130;SDS011;51709;54.912;8.316;2023-01-01T17:09:23;40.50;;;6.40;;
65130;SDS011;51709;54.912;8.316;2023-01-01T17:14:44;45.75;;;7.43;;
65130;SDS011;51709;54.912;8.316;2023-01-01T17:20:06;41.63;;;6.57;;
65130;SDS011;51709;54.912;8.316;2023-01-01T17:25:27;40.15;;;8.10;;
65130;SDS011;51709;54.912;8.316;2023-01-01T17:30:48;56.92;;;7.90;;
65130;SDS011;51709;54.912;8.316;2023-01-01T17:36:09;31.88;;;6.43;;
65130;SDS011;51709;54.912;8.316;2023-01-01T17:41:30;51.08;;;7.20;;
65130;SDS011;51709;54.912;8.316;2023-01-01T17:46:50;46.20;;;6.68;;
65130;SDS011;51709;54.912;8.316;2023-01-01T17:52:14;50.53;;;7.65;;
65130;SDS011;51709;54.912;8.316;2023-01-01T17:57:35;41.97;;;8.00;;
65130;SDS011;51709;54.912;8.316;2023-01-01T18:02:56;51.75;;;8.73;;
65130;SDS011;51709;54.912;8.316;2023-01-01T18:08:16;67.38;;;8.38;;
65130;SDS011;51709;54.912;8.316;2023-01-01T18:13:37;58.60;;;8.15;;
65130;SDS011;51709;54.912;8.316;2023-01-01T18:18:58;50.67;;;8.20;;
65130;SDS011;51709;54.912;8.316;2023-01-01T18:24:24;38.90;;;6.53;;
65130;SDS011;51709;54.912;8.316;2023-01-01T18:29:44;34.50;;;6.18;;
65130;SDS011;51709;54.912;8.316;2023-01-01T18:35:07;51.63;;;6.90;;
65130;SDS011;51709;54.912;8.316;2023-01-01T18:40:27;43.92;;;5.95;;
65130;SDS011;51709;54.912;8.316;2023-01-01T18:45:51;46.20;;;6.20;;
65130;SDS011;51709;54.912;8.316;2023-01-01T18:51:13;59.70;;;8.40;;
65130;SDS011;51709;54.912;8.316;2023-01-01T18:56:37;47.22;;;7.15;;
65130;SDS011;51709;54.912;8.316;2023-01-01T19:01:58;43.10;;;6.53;;
65130;SDS011;51709;54.912;8.316;2023-01-01T19:07:20;45.00;;;5.55;;
65130;SDS011;51709;54.912;8.316;2023-01-01T19:12:40;51.17;;;8.10;;
65130;SDS011;51709;54.912;8.316;2023-01-01T19:18:01;49.28;;;7.72;;
65130;SDS011;51709;54.912;8.316;2023-01-01T19:23:22;48.63;;;8.00;;
65130;SDS011;51709;54.912;8.316;2023-01-01T19:28:53;50.42;;;6.90;;
65130;SDS011;51709;54.912;8.316;2023-01-01T19:34:16;43.20;;;6.60;;
65130;SDS011;51709;54.912;8.316;2023-01-01T19:39:36;40.42;;;6.85;;
65130;SDS011;51709;54.912;8.316;2023-01-01T19:44:58;45.38;;;7.47;;
65130;SDS011;51709;54.912;8.316;2023-01-01T19:50:20;49.35;;;7.13;;
65130;SDS011;51709;54.912;8.316;2023-01-01T19:55:41;38.53;;;6.93;;
65130;SDS011;51709;54.912;8.316;2023-01-01T20:01:02;41.55;;;7.13;;
65130;SDS011;51709;54.912;8.316;2023-01-01T20:06:23;45.65;;;5.45;;
65130;SDS011;51709;54.912;8.316;2023-01-01T20:11:44;47.05;;;5.68;;
65130;SDS011;51709;54.912;8.316;2023-01-01T20:17:10;31.95;;;4.78;;
65130;SDS011;51709;54.912;8.316;2023-01-01T20:22:30;42.58;;;7.15;;
65130;SDS011;51709;54.912;8.316;2023-01-01T20:27:51;32.90;;;6.47;;
65130;SDS011;51709;54.912;8.316;2023-01-01T20:33:30;29.48;;;5.25;;
65130;SDS011;51709;54.912;8.316;2023-01-01T20:38:51;28.73;;;5.30;;
65130;SDS011;51709;54.912;8.316;2023-01-01T20:44:12;34.92;;;6.97;;
65130;SDS011;51709;54.912;8.316;2023-01-01T20:49:32;29.77;;;5.70;;
65130;SDS011;51709;54.912;8.316;2023-01-01T20:54:53;27.13;;;5.10;;
65130;SDS011;51709;54.912;8.316;2023-01-01T21:00:13;29.80;;;4.18;;
65130;SDS011;51709;54.912;8.316;2023-01-01T21:05:34;30.70;;;5.07;;
65130;SDS011;51709;54.912;8.316;2023-01-01T21:10:55;29.77;;;4.85;;
65130;SDS011;51709;54.912;8.316;2023-01-01T21:16:17;17.85;;;4.28;;
65130;SDS011;51709;54.912;8.316;2023-01-01T21:21:42;21.17;;;4.25;;
65130;SDS011;51709;54.912;8.316;2023-01-01T21:27:14;34.33;;;5.15;;
65130;SDS011;51709;54.912;8.316;2023-01-01T21:32:39;26.48;;;4.30;;
65130;SDS011;51709;54.912;8.316;2023-01-01T21:38:02;25.73;;;4.60;;
65130;SDS011;51709;54.912;8.316;2023-01-01T21:43:40;21.77;;;4.28;;
65130;SDS011;51709;54.912;8.316;2023-01-01T21:54:36;30.92;;;5.10;;
65130;SDS011;51709;54.912;8.316;2023-01-01T21:59:57;21.55;;;3.83;;
65130;SDS011;51709;54.912;8.316;2023-01-01T22:05:21;23.55;;;3.63;;
65130;SDS011;51709;54.912;8.316;2023-01-01T22:10:50;21.88;;;4.35;;
65130;SDS011;51709;54.912;8.316;2023-01-01T22:16:11;23.98;;;4.70;;
65130;SDS011;51709;54.912;8.316;2023-01-01T22:21:35;21.97;;;4.80;;
65130;SDS011;51709;54.912;8.316;2023-01-01T22:26:56;22.95;;;5.10;;
65130;SDS011;51709;54.912;8.316;2023-01-01T22:32:36;23.42;;;4.43;;
65130;SDS011;51709;54.912;8.316;2023-01-01T22:37:57;27.25;;;5.63;;
65130;SDS011;51709;54.912;8.316;2023-01-01T22:43:25;25.20;;;3.97;;
65130;SDS011;51709;54.912;8.316;2023-01-01T22:48:50;17.67;;;3.75;;
65130;SDS011;51709;54.912;8.316;2023-01-01T22:54:17;25.73;;;6.10;;
65130;SDS011;51709;54.912;8.316;2023-01-01T22:59:38;24.00;;;4.18;;
65130;SDS011;51709;54.912;8.316;2023-01-01T23:04:58;26.38;;;4.40;;
65130;SDS011;51709;54.912;8.316;2023-01-01T23:10:19;11.13;;;4.53;;
65130;SDS011;51709;54.912;8.316;2023-01-01T23:15:40;21.10;;;4.30;;
65130;SDS011;51709;54.912;8.316;2023-01-01T23:21:19;22.15;;;4.85;;
65130;SDS011;51709;54.912;8.316;2023-01-01T23:26:46;17.77;;;3.72;;
65130;SDS011;51709;54.912;8.316;2023-01-01T23:32:08;24.15;;;4.63;;
65130;SDS011;51709;54.912;8.316;2023-01-01T23:37:29;17.08;;;4.13;;
65130;SDS011;51709;54.912;8.316;2023-01-01T23:42:50;19.17;;;5.60;;
65130;SDS011;51709;54.912;8.316;2023-01-01T23:48:10;16.73;;;4.18;;
65130;SDS011;51709;54.912;8.316;2023-01-01T23:53:31;11.77;;;3.15;;
65130;SDS011;51709;54.912;8.316;2023-01-01T23:58:51;14.32;;;3.67;;
